York New Salem, Pennsylvania
Current Conditions -  °F | °C
As of 6:53 PM on Friday 21 Nov 2014 (Local Time) from KTHV Reporting Station
Clear Clear  
Wind Chill: 20°   Ceiling: Unl
Heat Index: 20°   Visibility: 10mi
Dew Point: 11°   Wind: 3mph
Humidity: 68%   Direction: 290°WNW
Pressure: 30.51"   Gusts: NA
Location:  39.9°N, 76.78°W
Report Text: KTHV 212353Z AUTO 29003KT 10SM CLR M07/M12 A3051 RMK AO2 SLP340 T10671117 10017 21072 51020
Loading
Personal Weather Stations






























Interactive Weather Map New forecast layout! Learn more

10-Day Weather Forecast

Advertisements
Track Severe Weather on mobile